sensor_id;sensor_type;location;lat;lon;timestamp;pressure;altitude;pressure_sealevel;temperature;humidity
12626;BME280;6378;42.684;23.372;2022-08-21T00:02:18;94563.28;;;22.21;100.00
12626;BME280;6378;42.684;23.372;2022-08-21T00:04:45;94563.41;;;22.18;100.00
12626;BME280;6378;42.684;23.372;2022-08-21T00:07:13;94540.03;;;21.97;100.00
12626;BME280;6378;42.684;23.372;2022-08-21T00:09:38;94532.63;;;22.10;100.00
12626;BME280;6378;42.684;23.372;2022-08-21T00:12:05;94546.50;;;22.48;100.00
12626;BME280;6378;42.684;23.372;2022-08-21T00:14:31;94543.69;;;22.52;100.00
12626;BME280;6378;42.684;23.372;2022-08-21T00:16:57;94549.28;;;22.77;100.00
12626;BME280;6378;42.684;23.372;2022-08-21T00:19:23;94545.63;;;22.67;100.00
12626;BME280;6378;42.684;23.372;2022-08-21T00:21:51;94552.63;;;22.39;100.00
12626;BME280;6378;42.684;23.372;2022-08-21T00:24:17;94539.88;;;22.33;100.00
12626;BME280;6378;42.684;23.372;2022-08-21T00:26:43;94542.47;;;22.24;100.00
12626;BME280;6378;42.684;23.372;2022-08-21T00:29:08;94546.94;;;21.85;100.00
12626;BME280;6378;42.684;23.372;2022-08-21T00:31:35;94544.91;;;21.73;100.00
12626;BME280;6378;42.684;23.372;2022-08-21T00:34:00;94537.00;;;21.43;100.00
12626;BME280;6378;42.684;23.372;2022-08-21T00:36:26;94533.59;;;21.39;100.00
12626;BME280;6378;42.684;23.372;2022-08-21T00:38:51;94548.41;;;21.05;100.00
12626;BME280;6378;42.684;23.372;2022-08-21T00:41:17;94552.63;;;21.26;100.00
12626;BME280;6378;42.684;23.372;2022-08-21T00:43:42;94559.34;;;21.25;100.00
12626;BME280;6378;42.684;23.372;2022-08-21T00:46:08;94562.84;;;21.26;100.00
12626;BME280;6378;42.684;23.372;2022-08-21T00:48:33;94568.16;;;21.33;100.00
12626;BME280;6378;42.684;23.372;2022-08-21T00:51:17;94565.94;;;21.60;100.00
12626;BME280;6378;42.684;23.372;2022-08-21T00:53:49;94560.38;;;21.80;100.00
12626;BME280;6378;42.684;23.372;2022-08-21T00:56:17;94557.41;;;22.07;100.00
12626;BME280;6378;42.684;23.372;2022-08-21T00:58:44;94551.91;;;22.23;100.00
12626;BME280;6378;42.684;23.372;2022-08-21T01:01:11;94549.09;;;22.39;100.00
12626;BME280;6378;42.684;23.372;2022-08-21T01:03:37;94539.50;;;22.47;100.00
12626;BME280;6378;42.684;23.372;2022-08-21T01:06:04;94519.84;;;22.20;100.00
12626;BME280;6378;42.684;23.372;2022-08-21T01:08:31;94529.09;;;22.26;100.00
12626;BME280;6378;42.684;23.372;2022-08-21T01:10:58;94532.59;;;21.97;100.00
12626;BME280;6378;42.684;23.372;2022-08-21T01:13:26;94536.34;;;21.87;100.00
12626;BME280;6378;42.684;23.372;2022-08-21T01:15:54;94531.91;;;21.93;100.00
12626;BME280;6378;42.684;23.372;2022-08-21T01:18:21;94503.03;;;21.73;100.00
12626;BME280;6378;42.684;23.372;2022-08-21T01:21:23;94534.13;;;21.82;100.00
12626;BME280;6378;42.684;23.372;2022-08-21T01:23:51;94530.34;;;21.76;100.00
12626;BME280;6378;42.684;23.372;2022-08-21T01:26:21;94517.94;;;21.55;100.00
12626;BME280;6378;42.684;23.372;2022-08-21T01:29:05;94516.16;;;21.49;100.00
12626;BME280;6378;42.684;23.372;2022-08-21T01:31:32;94523.75;;;21.41;100.00
12626;BME280;6378;42.684;23.372;2022-08-21T01:33:59;94523.69;;;21.45;100.00
12626;BME280;6378;42.684;23.372;2022-08-21T01:36:25;94526.94;;;21.40;100.00
12626;BME280;6378;42.684;23.372;2022-08-21T01:38:50;94528.28;;;21.48;100.00
12626;BME280;6378;42.684;23.372;2022-08-21T01:41:16;94532.81;;;21.38;100.00
12626;BME280;6378;42.684;23.372;2022-08-21T01:43:42;94548.13;;;21.00;100.00
12626;BME280;6378;42.684;23.372;2022-08-21T01:46:09;94554.88;;;20.56;100.00
12626;BME280;6378;42.684;23.372;2022-08-21T01:48:35;94554.88;;;20.95;100.00
12626;BME280;6378;42.684;23.372;2022-08-21T01:51:01;94549.91;;;21.06;100.00
12626;BME280;6378;42.684;23.372;2022-08-21T01:53:27;94553.31;;;20.94;100.00
12626;BME280;6378;42.684;23.372;2022-08-21T01:55:53;94545.59;;;20.89;100.00
12626;BME280;6378;42.684;23.372;2022-08-21T01:58:19;94549.59;;;21.04;100.00
12626;BME280;6378;42.684;23.372;2022-08-21T02:00:44;94543.31;;;21.24;100.00
12626;BME280;6378;42.684;23.372;2022-08-21T02:03:10;94541.44;;;21.21;100.00
12626;BME280;6378;42.684;23.372;2022-08-21T02:05:35;94545.13;;;21.46;100.00
12626;BME280;6378;42.684;23.372;2022-08-21T02:08:01;94549.53;;;21.44;100.00
12626;BME280;6378;42.684;23.372;2022-08-21T02:10:30;94560.66;;;21.53;100.00
12626;BME280;6378;42.684;23.372;2022-08-21T02:12:56;94556.19;;;21.91;100.00
12626;BME280;6378;42.684;23.372;2022-08-21T02:15:23;94559.38;;;21.74;100.00
12626;BME280;6378;42.684;23.372;2022-08-21T02:17:53;94553.44;;;21.91;100.00
12626;BME280;6378;42.684;23.372;2022-08-21T02:20:25;94544.03;;;21.92;100.00
12626;BME280;6378;42.684;23.372;2022-08-21T02:22:51;94546.00;;;21.92;100.00
12626;BME280;6378;42.684;23.372;2022-08-21T02:25:18;94539.06;;;21.87;100.00
12626;BME280;6378;42.684;23.372;2022-08-21T02:27:45;94551.91;;;22.23;100.00
12626;BME280;6378;42.684;23.372;2022-08-21T02:30:20;94559.50;;;21.50;100.00
12626;BME280;6378;42.684;23.372;2022-08-21T02:32:47;94559.66;;;20.91;100.00
12626;BME280;6378;42.684;23.372;2022-08-21T02:35:12;94577.06;;;20.81;100.00
12626;BME280;6378;42.684;23.372;2022-08-21T02:37:53;94580.59;;;20.58;100.00
12626;BME280;6378;42.684;23.372;2022-08-21T02:40:22;94577.16;;;20.54;100.00
12626;BME280;6378;42.684;23.372;2022-08-21T02:42:47;94574.59;;;20.47;100.00
12626;BME280;6378;42.684;23.372;2022-08-21T02:45:14;94573.47;;;20.21;100.00
12626;BME280;6378;42.684;23.372;2022-08-21T02:47:47;94580.38;;;20.06;100.00
12626;BME280;6378;42.684;23.372;2022-08-21T02:50:12;94573.66;;;19.87;100.00
12626;BME280;6378;42.684;23.372;2022-08-21T02:52:38;94575.16;;;19.69;100.00
12626;BME280;6378;42.684;23.372;2022-08-21T02:55:03;94581.66;;;19.75;100.00
12626;BME280;6378;42.684;23.372;2022-08-21T02:57:30;94592.47;;;19.82;100.00
12626;BME280;6378;42.684;23.372;2022-08-21T02:59:57;94595.91;;;19.86;100.00
12626;BME280;6378;42.684;23.372;2022-08-21T03:02:23;94596.00;;;19.82;100.00
12626;BME280;6378;42.684;23.372;2022-08-21T03:04:48;94582.28;;;19.86;100.00
12626;BME280;6378;42.684;23.372;2022-08-21T03:07:14;94590.84;;;19.88;100.00
12626;BME280;6378;42.684;23.372;2022-08-21T03:09:40;94581.56;;;19.82;100.00
12626;BME280;6378;42.684;23.372;2022-08-21T03:12:06;94574.78;;;20.13;100.00
12626;BME280;6378;42.684;23.372;2022-08-21T03:14:31;94580.06;;;20.01;100.00
12626;BME280;6378;42.684;23.372;2022-08-21T03:16:56;94590.75;;;20.15;100.00
12626;BME280;6378;42.684;23.372;2022-08-21T03:19:22;94586.66;;;20.26;100.00
12626;BME280;6378;42.684;23.372;2022-08-21T03:21:47;94585.50;;;20.24;100.00
12626;BME280;6378;42.684;23.372;2022-08-21T03:24:13;94586.56;;;20.53;100.00
12626;BME280;6378;42.684;23.372;2022-08-21T03:26:38;94578.59;;;20.43;100.00
12626;BME280;6378;42.684;23.372;2022-08-21T03:29:04;94588.88;;;20.35;100.00
12626;BME280;6378;42.684;23.372;2022-08-21T03:31:30;94595.88;;;20.36;100.00
12626;BME280;6378;42.684;23.372;2022-08-21T03:33:57;94584.88;;;20.40;100.00
12626;BME280;6378;42.684;23.372;2022-08-21T03:36:23;94586.41;;;20.41;100.00
12626;BME280;6378;42.684;23.372;2022-08-21T03:38:49;94583.47;;;20.31;100.00
12626;BME280;6378;42.684;23.372;2022-08-21T03:41:14;94588.66;;;20.46;100.00
12626;BME280;6378;42.684;23.372;2022-08-21T03:43:40;94575.97;;;20.36;100.00
12626;BME280;6378;42.684;23.372;2022-08-21T03:46:06;94591.66;;;20.08;100.00
12626;BME280;6378;42.684;23.372;2022-08-21T03:48:33;94590.63;;;19.75;100.00
12626;BME280;6378;42.684;23.372;2022-08-21T03:50:59;94586.00;;;19.72;100.00
12626;BME280;6378;42.684;23.372;2022-08-21T03:53:25;94594.50;;;19.51;100.00
12626;BME280;6378;42.684;23.372;2022-08-21T03:55:51;94597.72;;;19.46;100.00
12626;BME280;6378;42.684;23.372;2022-08-21T03:58:22;94601.34;;;19.36;100.00
12626;BME280;6378;42.684;23.372;2022-08-21T04:00:50;94592.94;;;19.23;100.00
12626;BME280;6378;42.684;23.372;2022-08-21T04:03:17;94611.63;;;19.25;100.00
12626;BME280;6378;42.684;23.372;2022-08-21T04:05:43;94610.94;;;19.48;100.00
12626;BME280;6378;42.684;23.372;2022-08-21T04:08:10;94594.06;;;19.26;100.00
12626;BME280;6378;42.684;23.372;2022-08-21T04:10:37;94608.13;;;19.24;100.00
12626;BME280;6378;42.684;23.372;2022-08-21T04:13:04;94619.47;;;19.23;100.00
12626;BME280;6378;42.684;23.372;2022-08-21T04:15:30;94621.22;;;19.36;100.00
12626;BME280;6378;42.684;23.372;2022-08-21T04:17:55;94611.00;;;19.44;100.00
12626;BME280;6378;42.684;23.372;2022-08-21T04:20:21;94603.03;;;19.26;100.00
12626;BME280;6378;42.684;23.372;2022-08-21T04:22:48;94607.63;;;19.60;100.00
12626;BME280;6378;42.684;23.372;2022-08-21T04:25:14;94598.03;;;19.52;100.00
12626;BME280;6378;42.684;23.372;2022-08-21T04:27:40;94597.31;;;19.48;100.00
12626;BME280;6378;42.684;23.372;2022-08-21T04:30:07;94599.81;;;19.62;100.00
12626;BME280;6378;42.684;23.372;2022-08-21T04:32:35;94608.00;;;19.35;100.00
12626;BME280;6378;42.684;23.372;2022-08-21T04:35:02;94609.78;;;19.49;100.00
12626;BME280;6378;42.684;23.372;2022-08-21T04:37:29;94605.66;;;19.64;100.00
12626;BME280;6378;42.684;23.372;2022-08-21T04:39:55;94597.34;;;19.71;100.00
12626;BME280;6378;42.684;23.372;2022-08-21T04:42:25;94594.97;;;19.73;100.00
12626;BME280;6378;42.684;23.372;2022-08-21T04:44:51;94592.41;;;19.62;100.00
12626;BME280;6378;42.684;23.372;2022-08-21T04:47:17;94604.25;;;19.79;100.00
12626;BME280;6378;42.684;23.372;2022-08-21T04:49:43;94605.06;;;19.76;100.00
12626;BME280;6378;42.684;23.372;2022-08-21T04:52:09;94603.09;;;19.76;100.00
12626;BME280;6378;42.684;23.372;2022-08-21T04:54:36;94608.50;;;19.80;100.00
12626;BME280;6378;42.684;23.372;2022-08-21T04:57:05;94600.06;;;19.94;100.00
12626;BME280;6378;42.684;23.372;2022-08-21T04:59:42;94594.75;;;20.10;100.00
12626;BME280;6378;42.684;23.372;2022-08-21T05:02:10;94588.78;;;20.15;100.00
12626;BME280;6378;42.684;23.372;2022-08-21T05:04:40;94593.38;;;20.22;100.00
12626;BME280;6378;42.684;23.372;2022-08-21T05:07:10;94589.88;;;20.84;100.00
12626;BME280;6378;42.684;23.372;2022-08-21T05:09:38;94573.66;;;20.93;100.00
12626;BME280;6378;42.684;23.372;2022-08-21T05:12:04;94579.41;;;21.54;100.00
12626;BME280;6378;42.684;23.372;2022-08-21T05:14:30;94568.03;;;22.04;100.00
12626;BME280;6378;42.684;23.372;2022-08-21T05:16:55;94577.63;;;22.58;100.00
12626;BME280;6378;42.684;23.372;2022-08-21T05:19:21;94564.44;;;23.48;100.00
12626;BME280;6378;42.684;23.372;2022-08-21T05:21:47;94537.84;;;24.30;100.00
12626;BME280;6378;42.684;23.372;2022-08-21T05:24:13;94546.34;;;25.01;100.00
12626;BME280;6378;42.684;23.372;2022-08-21T05:26:39;94533.38;;;25.41;100.00
12626;BME280;6378;42.684;23.372;2022-08-21T05:29:05;94537.16;;;25.66;100.00
12626;BME280;6378;42.684;23.372;2022-08-21T05:31:31;94527.97;;;25.60;100.00
12626;BME280;6378;42.684;23.372;2022-08-21T05:33:57;94543.16;;;25.42;100.00
12626;BME280;6378;42.684;23.372;2022-08-21T05:36:22;94544.53;;;25.07;100.00
12626;BME280;6378;42.684;23.372;2022-08-21T05:38:47;94537.41;;;24.19;100.00
12626;BME280;6378;42.684;23.372;2022-08-21T05:41:13;94539.88;;;23.92;100.00
12626;BME280;6378;42.684;23.372;2022-08-21T05:43:38;94531.56;;;23.32;100.00
12626;BME280;6378;42.684;23.372;2022-08-21T05:46:06;94530.28;;;23.49;100.00
12626;BME280;6378;42.684;23.372;2022-08-21T05:48:32;94499.94;;;24.00;100.00
12626;BME280;6378;42.684;23.372;2022-08-21T05:50:58;94518.00;;;24.79;100.00
12626;BME280;6378;42.684;23.372;2022-08-21T05:53:28;94520.41;;;25.11;100.00
12626;BME280;6378;42.684;23.372;2022-08-21T05:55:54;94518.31;;;25.24;100.00
12626;BME280;6378;42.684;23.372;2022-08-21T05:58:21;94524.19;;;24.61;100.00
12626;BME280;6378;42.684;23.372;2022-08-21T06:00:49;94523.28;;;24.42;100.00
12626;BME280;6378;42.684;23.372;2022-08-21T06:03:18;94523.00;;;24.49;100.00
12626;BME280;6378;42.684;23.372;2022-08-21T06:05:45;94517.88;;;24.17;100.00
12626;BME280;6378;42.684;23.372;2022-08-21T06:08:10;94527.03;;;23.89;100.00
12626;BME280;6378;42.684;23.372;2022-08-21T06:10:36;94533.22;;;23.67;100.00
12626;BME280;6378;42.684;23.372;2022-08-21T06:13:02;94524.09;;;23.70;100.00
12626;BME280;6378;42.684;23.372;2022-08-21T06:15:28;94518.84;;;24.10;100.00
12626;BME280;6378;42.684;23.372;2022-08-21T06:17:54;94525.13;;;24.45;100.00
12626;BME280;6378;42.684;23.372;2022-08-21T06:20:20;94514.59;;;25.18;100.00
12626;BME280;6378;42.684;23.372;2022-08-21T06:22:45;94524.41;;;25.99;100.00
12626;BME280;6378;42.684;23.372;2022-08-21T06:25:11;94516.34;;;26.23;97.38
12626;BME280;6378;42.684;23.372;2022-08-21T06:27:36;94507.06;;;25.90;93.64
12626;BME280;6378;42.684;23.372;2022-08-21T06:30:05;94525.00;;;25.94;93.86
12626;BME280;6378;42.684;23.372;2022-08-21T06:32:31;94521.59;;;25.81;95.24
12626;BME280;6378;42.684;23.372;2022-08-21T06:34:56;94515.69;;;26.19;94.97
12626;BME280;6378;42.684;23.372;2022-08-21T06:37:22;94521.09;;;26.41;91.03
12626;BME280;6378;42.684;23.372;2022-08-21T06:39:47;94522.31;;;26.49;89.83
12626;BME280;6378;42.684;23.372;2022-08-21T06:42:17;94526.94;;;26.43;91.71
12626;BME280;6378;42.684;23.372;2022-08-21T06:44:43;94507.41;;;26.19;91.35
12626;BME280;6378;42.684;23.372;2022-08-21T06:47:09;94520.44;;;26.18;91.88
12626;BME280;6378;42.684;23.372;2022-08-21T06:49:35;94504.03;;;26.15;92.65
12626;BME280;6378;42.684;23.372;2022-08-21T06:52:01;94523.03;;;26.13;93.59
12626;BME280;6378;42.684;23.372;2022-08-21T06:54:26;94482.91;;;25.54;94.65
12626;BME280;6378;42.684;23.372;2022-08-21T06:56:52;94517.50;;;25.15;100.00
12626;BME280;6378;42.684;23.372;2022-08-21T06:59:18;94531.63;;;25.26;99.06
12626;BME280;6378;42.684;23.372;2022-08-21T07:01:43;94535.91;;;25.58;96.19
12626;BME280;6378;42.684;23.372;2022-08-21T07:04:10;94545.19;;;25.91;91.05
12626;BME280;6378;42.684;23.372;2022-08-21T07:06:35;94537.97;;;26.34;87.62
12626;BME280;6378;42.684;23.372;2022-08-21T07:09:01;94529.03;;;26.29;85.73
12626;BME280;6378;42.684;23.372;2022-08-21T07:11:27;94528.44;;;26.71;85.73
12626;BME280;6378;42.684;23.372;2022-08-21T07:13:53;94518.75;;;27.12;83.08
12626;BME280;6378;42.684;23.372;2022-08-21T07:16:20;94528.25;;;27.11;78.77
12626;BME280;6378;42.684;23.372;2022-08-21T07:18:46;94526.88;;;27.06;78.63
12626;BME280;6378;42.684;23.372;2022-08-21T07:21:12;94513.91;;;27.31;76.86
12626;BME280;6378;42.684;23.372;2022-08-21T07:23:42;94529.41;;;27.79;74.43
12626;BME280;6378;42.684;23.372;2022-08-21T07:26:09;94482.19;;;27.59;70.80
12626;BME280;6378;42.684;23.372;2022-08-21T07:28:35;94509.88;;;27.83;70.51
12626;BME280;6378;42.684;23.372;2022-08-21T07:31:01;94529.31;;;28.21;70.22
12626;BME280;6378;42.684;23.372;2022-08-21T07:33:28;94513.94;;;28.44;65.59
12626;BME280;6378;42.684;23.372;2022-08-21T07:35:55;94519.00;;;28.46;62.75
12626;BME280;6378;42.684;23.372;2022-08-21T07:38:21;94512.66;;;28.30;63.48
12626;BME280;6378;42.684;23.372;2022-08-21T07:40:47;94495.22;;;27.91;66.28
12626;BME280;6378;42.684;23.372;2022-08-21T07:43:13;94515.34;;;27.92;62.65
12626;BME280;6378;42.684;23.372;2022-08-21T07:45:41;94508.81;;;27.80;65.23
12626;BME280;6378;42.684;23.372;2022-08-21T07:48:07;94496.34;;;27.52;66.20
12626;BME280;6378;42.684;23.372;2022-08-21T07:50:33;94474.09;;;27.46;70.07
12626;BME280;6378;42.684;23.372;2022-08-21T07:52:58;94499.09;;;27.61;69.91
12626;BME280;6378;42.684;23.372;2022-08-21T07:55:25;94489.75;;;27.49;66.95
12626;BME280;6378;42.684;23.372;2022-08-21T07:57:50;94513.88;;;27.49;67.19
12626;BME280;6378;42.684;23.372;2022-08-21T08:00:19;94511.16;;;27.31;69.12
12626;BME280;6378;42.684;23.372;2022-08-21T08:02:47;94513.25;;;26.94;71.15
12626;BME280;6378;42.684;23.372;2022-08-21T08:05:16;94497.31;;;26.61;71.29
12626;BME280;6378;42.684;23.372;2022-08-21T08:07:42;94495.19;;;26.38;76.30
12626;BME280;6378;42.684;23.372;2022-08-21T08:10:08;94498.38;;;26.55;75.61
12626;BME280;6378;42.684;23.372;2022-08-21T08:12:35;94495.28;;;26.16;80.16
12626;BME280;6378;42.684;23.372;2022-08-21T08:15:01;94509.94;;;25.77;80.04
12626;BME280;6378;42.684;23.372;2022-08-21T08:17:27;94509.94;;;25.77;78.29
12626;BME280;6378;42.684;23.372;2022-08-21T08:19:53;94500.25;;;25.63;81.53
12626;BME280;6378;42.684;23.372;2022-08-21T08:22:21;94497.94;;;25.62;83.16
12626;BME280;6378;42.684;23.372;2022-08-21T08:24:49;94498.56;;;25.66;85.05
12626;BME280;6378;42.684;23.372;2022-08-21T08:27:15;94486.88;;;25.53;80.53
12626;BME280;6378;42.684;23.372;2022-08-21T08:29:41;94510.44;;;25.84;79.29
12626;BME280;6378;42.684;23.372;2022-08-21T08:32:07;94504.16;;;26.02;82.66
12626;BME280;6378;42.684;23.372;2022-08-21T08:34:33;94503.94;;;25.60;80.23
12626;BME280;6378;42.684;23.372;2022-08-21T08:36:59;94509.34;;;25.42;81.94
12626;BME280;6378;42.684;23.372;2022-08-21T08:39:25;94506.81;;;25.57;83.42
12626;BME280;6378;42.684;23.372;2022-08-21T08:41:57;94500.63;;;25.83;85.31
12626;BME280;6378;42.684;23.372;2022-08-21T08:44:24;94512.44;;;25.93;85.54
12626;BME280;6378;42.684;23.372;2022-08-21T08:46:51;94514.69;;;25.85;89.36
12626;BME280;6378;42.684;23.372;2022-08-21T08:52:00;94498.50;;;25.97;87.84
12626;BME280;6378;42.684;23.372;2022-08-21T08:54:40;94495.81;;;26.24;86.35
12626;BME280;6378;42.684;23.372;2022-08-21T08:57:16;94494.72;;;26.30;76.26
12626;BME280;6378;42.684;23.372;2022-08-21T08:59:46;94492.28;;;26.23;81.21
12626;BME280;6378;42.684;23.372;2022-08-21T09:02:15;94491.94;;;26.12;85.74
12626;BME280;6378;42.684;23.372;2022-08-21T09:04:41;94487.94;;;26.04;82.24
12626;BME280;6378;42.684;23.372;2022-08-21T09:10:13;94486.94;;;25.71;90.85
12626;BME280;6378;42.684;23.372;2022-08-21T09:20:54;94476.00;;;26.25;83.89
12626;BME280;6378;42.684;23.372;2022-08-21T09:26:23;94438.00;;;26.29;78.57
12626;BME280;6378;42.684;23.372;2022-08-21T09:28:54;94427.88;;;26.08;77.78
12626;BME280;6378;42.684;23.372;2022-08-21T09:31:32;94465.59;;;26.39;78.58
12626;BME280;6378;42.684;23.372;2022-08-21T09:34:11;94467.13;;;26.58;75.43
12626;BME280;6378;42.684;23.372;2022-08-21T09:36:44;94465.56;;;26.66;71.85
12626;BME280;6378;42.684;23.372;2022-08-21T09:39:12;94462.50;;;26.55;72.66
12626;BME280;6378;42.684;23.372;2022-08-21T09:41:39;94464.03;;;26.19;74.65
12626;BME280;6378;42.684;23.372;2022-08-21T09:44:07;94445.66;;;26.44;73.65
12626;BME280;6378;42.684;23.372;2022-08-21T09:46:33;94464.66;;;26.14;73.68
12626;BME280;6378;42.684;23.372;2022-08-21T09:49:01;94470.75;;;26.00;77.69
12626;BME280;6378;42.684;23.372;2022-08-21T09:51:29;94465.38;;;25.87;76.63
12626;BME280;6378;42.684;23.372;2022-08-21T09:54:12;94458.50;;;26.10;75.67
12626;BME280;6378;42.684;23.372;2022-08-21T09:56:53;94457.00;;;26.46;72.70
12626;BME280;6378;42.684;23.372;2022-08-21T09:59:38;94449.03;;;26.29;75.86
12626;BME280;6378;42.684;23.372;2022-08-21T10:05:00;94445.38;;;26.23;74.62
12626;BME280;6378;42.684;23.372;2022-08-21T10:07:29;94444.38;;;25.81;75.00
12626;BME280;6378;42.684;23.372;2022-08-21T10:12:47;94427.38;;;25.64;78.43
12626;BME280;6378;42.684;23.372;2022-08-21T10:15:20;94435.50;;;25.68;78.06
12626;BME280;6378;42.684;23.372;2022-08-21T10:18:12;94441.44;;;25.66;78.73
12626;BME280;6378;42.684;23.372;2022-08-21T10:21:02;94440.59;;;25.29;83.72
12626;BME280;6378;42.684;23.372;2022-08-21T10:28:59;94426.63;;;25.64;86.24
12626;BME280;6378;42.684;23.372;2022-08-21T10:34:58;94420.88;;;25.49;82.82
12626;BME280;6378;42.684;23.372;2022-08-21T10:48:07;94411.25;;;25.54;82.60
12626;BME280;6378;42.684;23.372;2022-08-21T10:50:44;94398.13;;;25.67;80.84
12626;BME280;6378;42.684;23.372;2022-08-21T10:56:22;94398.44;;;25.78;78.93
12626;BME280;6378;42.684;23.372;2022-08-21T11:04:15;94393.53;;;26.00;77.94
12626;BME280;6378;42.684;23.372;2022-08-21T11:06:46;94398.75;;;26.07;79.46
12626;BME280;6378;42.684;23.372;2022-08-21T11:09:15;94387.41;;;26.05;78.14
12626;BME280;6378;42.684;23.372;2022-08-21T11:11:52;94367.91;;;26.45;74.89
12626;BME280;6378;42.684;23.372;2022-08-21T11:20:34;94369.88;;;26.63;70.05
12626;BME280;6378;42.684;23.372;2022-08-21T11:23:10;94368.47;;;26.67;71.21
12626;BME280;6378;42.684;23.372;2022-08-21T11:25:42;94368.25;;;26.38;69.72
12626;BME280;6378;42.684;23.372;2022-08-21T11:28:26;94368.47;;;26.67;69.23
12626;BME280;6378;42.684;23.372;2022-08-21T11:37:11;94365.59;;;26.53;69.06
12626;BME280;6378;42.684;23.372;2022-08-21T11:50:13;94368.72;;;25.91;67.40
12626;BME280;6378;42.684;23.372;2022-08-21T11:52:47;94369.63;;;26.06;68.09
12626;BME280;6378;42.684;23.372;2022-08-21T11:55:22;94331.97;;;26.03;67.67
12626;BME280;6378;42.684;23.372;2022-08-21T12:01:09;94354.19;;;25.72;65.71
12626;BME280;6378;42.684;23.372;2022-08-21T12:03:39;94340.81;;;25.53;66.68
12626;BME280;6378;42.684;23.372;2022-08-21T12:06:11;94350.78;;;25.41;68.93
12626;BME280;6378;42.684;23.372;2022-08-21T12:08:43;94342.81;;;25.52;70.22
12626;BME280;6378;42.684;23.372;2022-08-21T12:11:24;94344.09;;;25.69;68.40
12626;BME280;6378;42.684;23.372;2022-08-21T12:14:21;94333.03;;;25.97;68.90
12626;BME280;6378;42.684;23.372;2022-08-21T12:16:48;94332.88;;;25.91;69.01
12626;BME280;6378;42.684;23.372;2022-08-21T12:26:56;94351.06;;;25.34;70.53
12626;BME280;6378;42.684;23.372;2022-08-21T12:29:22;94354.06;;;25.18;72.24
12626;BME280;6378;42.684;23.372;2022-08-21T12:32:01;94354.03;;;24.99;73.13
12626;BME280;6378;42.684;23.372;2022-08-21T12:37:43;94360.94;;;25.13;73.61
12626;BME280;6378;42.684;23.372;2022-08-21T12:40:21;94342.28;;;25.08;72.69
12626;BME280;6378;42.684;23.372;2022-08-21T12:42:51;94348.97;;;24.98;73.59
12626;BME280;6378;42.684;23.372;2022-08-21T12:45:33;94320.16;;;24.81;73.81
12626;BME280;6378;42.684;23.372;2022-08-21T12:48:04;94340.47;;;25.14;74.11
12626;BME280;6378;42.684;23.372;2022-08-21T12:50:39;94337.72;;;25.14;73.94
12626;BME280;6378;42.684;23.372;2022-08-21T12:53:10;94345.34;;;25.01;75.53
12626;BME280;6378;42.684;23.372;2022-08-21T12:55:41;94336.72;;;24.90;76.66
12626;BME280;6378;42.684;23.372;2022-08-21T12:58:17;94334.28;;;24.92;78.04
12626;BME280;6378;42.684;23.372;2022-08-21T13:00:49;94336.59;;;25.02;75.66
12626;BME280;6378;42.684;23.372;2022-08-21T13:03:15;94329.44;;;25.05;75.17
12626;BME280;6378;42.684;23.372;2022-08-21T13:05:41;94324.53;;;25.09;76.45
12626;BME280;6378;42.684;23.372;2022-08-21T13:08:09;94326.84;;;25.20;75.35
12626;BME280;6378;42.684;23.372;2022-08-21T13:10:36;94325.03;;;25.26;75.50
12626;BME280;6378;42.684;23.372;2022-08-21T13:13:07;94326.41;;;25.30;75.01
12626;BME280;6378;42.684;23.372;2022-08-21T13:15:37;94328.88;;;25.37;75.53
12626;BME280;6378;42.684;23.372;2022-08-21T13:18:04;94335.47;;;25.40;76.90
12626;BME280;6378;42.684;23.372;2022-08-21T13:23:01;94326.16;;;25.56;76.40
12626;BME280;6378;42.684;23.372;2022-08-21T13:25:33;94321.06;;;25.54;78.08
12626;BME280;6378;42.684;23.372;2022-08-21T13:28:06;94321.09;;;25.63;76.72
12626;BME280;6378;42.684;23.372;2022-08-21T13:30:34;94300.41;;;25.40;78.36
12626;BME280;6378;42.684;23.372;2022-08-21T13:33:03;94317.84;;;25.28;79.35
12626;BME280;6378;42.684;23.372;2022-08-21T13:35:35;94293.81;;;25.20;79.86
12626;BME280;6378;42.684;23.372;2022-08-21T13:38:02;94298.50;;;24.92;81.03
12626;BME280;6378;42.684;23.372;2022-08-21T13:40:31;94288.56;;;24.94;82.56
12626;BME280;6378;42.684;23.372;2022-08-21T13:42:59;94294.63;;;24.80;84.02
12626;BME280;6378;42.684;23.372;2022-08-21T13:45:31;94301.72;;;24.99;83.99
12626;BME280;6378;42.684;23.372;2022-08-21T13:47:56;94298.31;;;24.86;86.91
12626;BME280;6378;42.684;23.372;2022-08-21T13:50:24;94311.72;;;25.24;86.79
12626;BME280;6378;42.684;23.372;2022-08-21T13:53:03;94298.56;;;25.28;85.02
12626;BME280;6378;42.684;23.372;2022-08-21T13:55:40;94305.75;;;25.17;84.46
12626;BME280;6378;42.684;23.372;2022-08-21T13:58:07;94306.19;;;25.24;88.36
12626;BME280;6378;42.684;23.372;2022-08-21T14:00:43;94289.16;;;24.98;85.08
12626;BME280;6378;42.684;23.372;2022-08-21T14:03:09;94295.34;;;25.21;85.66
12626;BME280;6378;42.684;23.372;2022-08-21T14:05:45;94294.41;;;25.33;82.63
12626;BME280;6378;42.684;23.372;2022-08-21T14:08:14;94298.41;;;25.32;81.63
12626;BME280;6378;42.684;23.372;2022-08-21T14:10:44;94295.47;;;25.17;83.42
12626;BME280;6378;42.684;23.372;2022-08-21T14:13:29;94298.88;;;25.21;85.66
12626;BME280;6378;42.684;23.372;2022-08-21T14:15:59;94291.22;;;25.25;88.50
12626;BME280;6378;42.684;23.372;2022-08-21T14:18:25;94292.41;;;25.06;88.77
12626;BME280;6378;42.684;23.372;2022-08-21T14:21:02;94292.09;;;25.04;87.95
12626;BME280;6378;42.684;23.372;2022-08-21T14:23:28;94293.91;;;24.98;90.16
12626;BME280;6378;42.684;23.372;2022-08-21T14:25:59;94292.84;;;24.95;90.49
12626;BME280;6378;42.684;23.372;2022-08-21T14:28:27;94294.69;;;24.98;91.74
12626;BME280;6378;42.684;23.372;2022-08-21T14:30:54;94300.63;;;24.88;94.01
12626;BME280;6378;42.684;23.372;2022-08-21T14:35:49;94283.19;;;24.91;95.67